createdAt,value
2023-05-25T00:01:36.672Z,101759.06
2023-05-25T00:03:42.420Z,101767.06
2023-05-25T00:05:45.887Z,101769.00
2023-05-25T00:07:49.218Z,101774.50
2023-05-25T00:09:52.575Z,101770.16
2023-05-25T00:11:56.073Z,101769.63
2023-05-25T00:13:59.587Z,101781.16
2023-05-25T00:16:02.967Z,101781.28
2023-05-25T00:18:06.492Z,101777.06
2023-05-25T00:20:13.808Z,101778.78
2023-05-25T00:22:17.570Z,101769.63
2023-05-25T00:24:20.899Z,101774.50
2023-05-25T00:26:24.260Z,101771.47
2023-05-25T00:28:27.643Z,101774.03
2023-05-25T00:30:31.099Z,101763.22
2023-05-25T00:32:36.082Z,101771.47
2023-05-25T00:34:39.525Z,101776.97
2023-05-25T00:36:48.355Z,101689.91
2023-05-25T00:38:51.776Z,101774.84
2023-05-25T00:40:57.084Z,101775.03
2023-05-25T00:43:00.921Z,101777.81
2023-05-25T00:45:04.658Z,101783.00
2023-05-25T00:47:08.224Z,101780.09
2023-05-25T00:49:14.650Z,101781.88
2023-05-25T00:51:18.774Z,101773.91
2023-05-25T00:53:23.505Z,101772.25
2023-05-25T00:55:31.070Z,101737.31
2023-05-25T00:57:37.957Z,101771.38
2023-05-25T00:59:46.507Z,101773.41
2023-05-25T01:01:54.024Z,101760.88
2023-05-25T01:03:59.563Z,101770.31
2023-05-25T01:06:05.462Z,101752.69
2023-05-25T01:08:10.220Z,101769.50
2023-05-25T01:10:16.936Z,101769.78
2023-05-25T01:12:21.134Z,101625.09
2023-05-25T01:14:24.991Z,101721.78
2023-05-25T01:16:29.382Z,101767.44
2023-05-25T01:18:33.662Z,101771.91
2023-05-25T01:20:37.231Z,101770.22
2023-05-25T01:22:48.956Z,101770.22
2023-05-25T01:24:57.494Z,101775.63
2023-05-25T01:27:08.747Z,101761.44
2023-05-25T01:29:15.154Z,101775.81
2023-05-25T01:31:21.724Z,101776.53
2023-05-25T01:33:26.298Z,101776.34
2023-05-25T01:35:30.658Z,101769.47
2023-05-25T01:37:37.467Z,101770.38
2023-05-25T01:39:42.579Z,101768.81
2023-05-25T01:41:46.199Z,101705.59
2023-05-25T01:43:49.842Z,101779.47
2023-05-25T01:45:59.119Z,101775.97
2023-05-25T01:48:12.936Z,101784.31
2023-05-25T01:50:23.701Z,101785.78
2023-05-25T01:52:29.797Z,101710.31
2023-05-25T01:54:38.881Z,101781.84
2023-05-25T01:56:48.667Z,101779.53
2023-05-25T01:58:52.812Z,101762.94
2023-05-25T02:00:57.664Z,101775.00
2023-05-25T02:03:02.308Z,101775.31
2023-05-25T02:05:06.542Z,101776.00
2023-05-25T02:07:09.945Z,101773.41
2023-05-25T02:09:13.495Z,101770.84
2023-05-25T02:11:17.448Z,101769.63
2023-05-25T02:13:23.840Z,101763.75
2023-05-25T02:15:32.234Z,101762.28
2023-05-25T02:17:37.121Z,101768.91
2023-05-25T02:19:41.523Z,101764.94
2023-05-25T02:21:45.215Z,101767.09
2023-05-25T02:23:49.334Z,101764.72
2023-05-25T02:25:52.815Z,101732.66
2023-05-25T02:27:56.182Z,101764.09
2023-05-25T02:30:01.124Z,101761.47
2023-05-25T02:32:06.995Z,101760.44
2023-05-25T02:34:11.746Z,101768.16
2023-05-25T02:36:15.132Z,101758.66
2023-05-25T02:38:18.551Z,101761.47
2023-05-25T02:40:21.938Z,101757.19
2023-05-25T02:42:25.572Z,101756.34
2023-05-25T02:44:29.135Z,101769.06
2023-05-25T02:46:34.612Z,101765.31
2023-05-25T02:48:38.110Z,101765.50
2023-05-25T02:50:41.747Z,101769.19
2023-05-25T02:52:49.900Z,101759.38
2023-05-25T02:54:53.320Z,101765.47
2023-05-25T02:57:05.762Z,101769.59
2023-05-25T02:59:09.494Z,101772.25
2023-05-25T03:01:18.768Z,101775.78
2023-05-25T03:03:31.115Z,101777.75
2023-05-25T03:05:35.357Z,101773.53
2023-05-25T03:07:39.244Z,101770.91
2023-05-25T03:09:42.678Z,101779.56
2023-05-25T03:11:46.102Z,101786.28
2023-05-25T03:13:53.131Z,101786.50
2023-05-25T03:15:58.388Z,101783.44
2023-05-25T03:18:02.085Z,101778.69
2023-05-25T03:20:14.589Z,101780.66
2023-05-25T03:22:20.427Z,101779.19
2023-05-25T03:24:24.031Z,101783.97
2023-05-25T03:26:27.563Z,101800.94
2023-05-25T03:28:31.565Z,101783.53
2023-05-25T03:30:35.078Z,101796.28
2023-05-25T03:32:39.597Z,101800.19
2023-05-25T03:34:44.858Z,101802.31
2023-05-25T03:36:54.270Z,101792.31
2023-05-25T03:38:57.713Z,101795.16
2023-05-25T03:41:01.234Z,101739.88
2023-05-25T03:43:04.730Z,101792.75
2023-05-25T03:45:09.994Z,101801.78
2023-05-25T03:47:15.472Z,101755.41
2023-05-25T03:49:19.425Z,101806.13
2023-05-25T03:51:22.849Z,101793.50
2023-05-25T03:53:27.614Z,101804.66
2023-05-25T03:55:33.984Z,101788.50
2023-05-25T03:57:37.304Z,101823.31
2023-05-25T03:59:40.782Z,101830.25
2023-05-25T04:01:44.202Z,101829.41
2023-05-25T04:03:47.790Z,101818.25
2023-05-25T04:05:51.345Z,101816.75
2023-05-25T04:07:54.853Z,101824.75
2023-05-25T04:10:00.081Z,101825.63
2023-05-25T04:12:03.630Z,101826.69
2023-05-25T04:14:07.009Z,101833.75
2023-05-25T04:16:14.803Z,101838.16
2023-05-25T04:18:20.491Z,101840.94
2023-05-25T04:20:24.856Z,101834.72
2023-05-25T04:22:28.635Z,101837.38
2023-05-25T04:24:32.729Z,101842.69
2023-05-25T04:26:39.436Z,101842.56
2023-05-25T04:28:43.032Z,101844.44
2023-05-25T04:31:09.652Z,101800.31
2023-05-25T04:33:31.979Z,101842.69
2023-05-25T04:35:38.510Z,101848.34
2023-05-25T04:37:41.956Z,101858.13
2023-05-25T04:39:46.262Z,101864.03
2023-05-25T04:41:51.677Z,101859.78
2023-05-25T04:44:07.910Z,101854.81
2023-05-25T04:46:17.034Z,101859.03
2023-05-25T04:48:21.507Z,101845.09
2023-05-25T04:50:25.125Z,101862.00
2023-05-25T04:52:29.200Z,101853.75
2023-05-25T04:54:32.738Z,101861.28
2023-05-25T04:56:38.308Z,101860.50
2023-05-25T04:58:43.272Z,101863.19
2023-05-25T05:00:47.250Z,101824.06
2023-05-25T05:02:51.401Z,101859.44
2023-05-25T05:04:54.872Z,101861.97
2023-05-25T05:06:59.946Z,101861.81
2023-05-25T05:09:06.082Z,101832.03
2023-05-25T05:11:09.920Z,101867.16
2023-05-25T05:13:14.118Z,101889.84
2023-05-25T05:15:19.799Z,101879.53
2023-05-25T05:17:26.414Z,101866.50
2023-05-25T05:19:29.988Z,101873.97
2023-05-25T05:21:33.459Z,101876.72
2023-05-25T05:23:38.347Z,101841.97
2023-05-25T05:25:41.947Z,101881.94
2023-05-25T05:27:46.243Z,101890.72
2023-05-25T05:29:54.790Z,101892.56
2023-05-25T05:31:59.760Z,101894.28
2023-05-25T05:34:03.874Z,101891.09
2023-05-25T05:36:09.026Z,101901.22
2023-05-25T05:38:13.405Z,101902.47
2023-05-25T05:40:17.038Z,101901.88
2023-05-25T05:42:20.637Z,101897.84
2023-05-25T05:44:27.833Z,101892.91
2023-05-25T05:46:33.280Z,101902.59
2023-05-25T05:48:38.586Z,101904.53
2023-05-25T05:50:42.358Z,101898.84
2023-05-25T05:52:48.081Z,101890.31
2023-05-25T05:54:51.490Z,101901.16
2023-05-25T05:56:54.994Z,101773.72
2023-05-25T05:58:58.763Z,101904.84
2023-05-25T06:01:03.425Z,101913.72
2023-05-25T06:03:08.006Z,101909.53
2023-05-25T06:05:13.080Z,101906.97
2023-05-25T06:07:18.801Z,101904.84
2023-05-25T06:09:22.436Z,101910.28
2023-05-25T06:11:25.982Z,101906.97
2023-05-25T06:13:29.633Z,101900.84
2023-05-25T06:15:33.117Z,101891.69
2023-05-25T06:17:38.390Z,101921.19
2023-05-25T06:19:43.454Z,101919.41
2023-05-25T06:21:48.277Z,101927.47
2023-05-25T06:23:51.757Z,101920.75
2023-05-25T06:25:55.622Z,101909.53
2023-05-25T06:27:59.086Z,101919.44
2023-05-25T06:30:02.835Z,101928.31
2023-05-25T06:32:07.417Z,101924.06
2023-05-25T06:34:11.059Z,101925.22
2023-05-25T06:36:15.830Z,101921.28
2023-05-25T06:38:21.991Z,101939.78
2023-05-25T06:40:25.712Z,101922.59
2023-05-25T06:42:29.508Z,101929.75
2023-05-25T06:44:33.624Z,101942.63
2023-05-25T06:46:44.620Z,101940.19
2023-05-25T06:48:48.604Z,101922.50
2023-05-25T06:50:51.989Z,101937.31
2023-05-25T06:53:00.349Z,101940.03
2023-05-25T06:55:06.071Z,101931.84
2023-05-25T06:57:09.584Z,101946.72
2023-05-25T06:59:13.271Z,101951.88
2023-05-25T07:01:17.019Z,101954.53
2023-05-25T07:03:20.947Z,101932.41
2023-05-25T07:05:24.702Z,101951.31
2023-05-25T07:07:28.354Z,101940.75
2023-05-25T07:09:33.200Z,101949.72
2023-05-25T07:11:37.940Z,101954.22
2023-05-25T07:13:41.397Z,101955.22
2023-05-25T07:15:45.204Z,101957.03
2023-05-25T07:17:48.833Z,101954.59
2023-05-25T07:19:52.331Z,101962.63
2023-05-25T07:21:55.810Z,101944.06
2023-05-25T07:23:59.376Z,101958.38
2023-05-25T07:26:05.605Z,101953.81
2023-05-25T07:28:10.858Z,101963.75
2023-05-25T07:30:14.994Z,101956.13
2023-05-25T07:32:18.678Z,101966.75
2023-05-25T07:34:25.714Z,101965.00
2023-05-25T07:36:29.906Z,101962.56
2023-05-25T07:38:33.302Z,101950.31
2023-05-25T07:40:36.972Z,101955.66
2023-05-25T07:42:43.562Z,101961.88
2023-05-25T07:44:49.747Z,101951.31
2023-05-25T07:46:53.201Z,101948.72
2023-05-25T07:48:58.374Z,101944.44
2023-05-25T07:51:01.818Z,101954.72
2023-05-25T07:53:05.442Z,101958.72
2023-05-25T07:55:10.032Z,101952.44
2023-05-25T07:57:13.585Z,101956.75
2023-05-25T07:59:16.955Z,101957.00
2023-05-25T08:01:24.480Z,101957.16
2023-05-25T08:03:47.392Z,101972.22
2023-05-25T08:05:53.361Z,101967.09
2023-05-25T08:07:57.086Z,101964.63
2023-05-25T08:10:00.881Z,101970.13
2023-05-25T08:12:27.332Z,101967.66
2023-05-25T08:14:27.904Z,101961.78
2023-05-25T08:16:32.690Z,101957.63
2023-05-25T08:18:36.096Z,101949.97
2023-05-25T08:20:39.873Z,101965.22
2023-05-25T08:22:43.796Z,101973.28
2023-05-25T08:24:47.105Z,101962.72
2023-05-25T08:26:54.805Z,101971.78
2023-05-25T08:28:58.729Z,101964.78
2023-05-25T08:31:02.176Z,101967.34
2023-05-25T08:33:08.051Z,101966.56
2023-05-25T08:35:14.029Z,101968.53
2023-05-25T08:37:17.820Z,101972.94
2023-05-25T08:39:21.277Z,101977.47
2023-05-25T08:41:24.705Z,101975.59
2023-05-25T08:43:28.125Z,101975.66
2023-05-25T08:45:35.309Z,101983.56
2023-05-25T08:47:42.882Z,101971.16
2023-05-25T08:49:50.943Z,101976.47
2023-05-25T08:51:55.839Z,101979.00
2023-05-25T08:54:04.285Z,101972.91
2023-05-25T08:56:14.649Z,101924.56
2023-05-25T08:58:21.756Z,101975.38
2023-05-25T09:00:29.617Z,101974.41
2023-05-25T09:02:36.953Z,101975.50
2023-05-25T09:04:40.669Z,101905.28
2023-05-25T09:06:54.090Z,101973.91
2023-05-25T09:09:06.091Z,101966.00
2023-05-25T09:11:10.285Z,101967.88
2023-05-25T09:13:22.161Z,101972.72
2023-05-25T09:15:26.132Z,101971.31
2023-05-25T09:17:29.677Z,101969.63
2023-05-25T09:19:33.041Z,101964.66
2023-05-25T09:21:36.915Z,101963.09
2023-05-25T09:23:41.910Z,101972.75
2023-05-25T09:25:45.631Z,101969.63
2023-05-25T09:27:50.331Z,101966.19
2023-05-25T09:29:54.062Z,101973.50
2023-05-25T09:31:57.821Z,101963.66
2023-05-25T09:34:01.391Z,101977.75
2023-05-25T09:36:05.501Z,101971.81
2023-05-25T09:38:09.204Z,101979.22
2023-05-25T09:40:15.464Z,101973.22
2023-05-25T09:42:20.265Z,101982.13
2023-05-25T09:44:23.653Z,101975.34
2023-05-25T09:46:27.548Z,101965.38
2023-05-25T09:48:31.686Z,101978.63
2023-05-25T09:50:36.959Z,101975.81
2023-05-25T09:52:40.563Z,101979.91
2023-05-25T09:54:45.770Z,101982.19
2023-05-25T09:56:50.740Z,101975.16
2023-05-25T09:58:54.170Z,101984.94
2023-05-25T10:00:58.307Z,101975.50
2023-05-25T10:03:01.815Z,101977.13
2023-05-25T10:05:06.113Z,101986.16
2023-05-25T10:07:09.938Z,101992.47
2023-05-25T10:09:15.488Z,101984.91
2023-05-25T10:11:22.647Z,101986.00
2023-05-25T10:13:30.629Z,101992.22
2023-05-25T10:15:35.139Z,101992.47
2023-05-25T10:17:44.482Z,101992.66
2023-05-25T10:19:55.740Z,102000.53
2023-05-25T10:22:05.610Z,101995.09
2023-05-25T10:24:21.452Z,101987.78
2023-05-25T10:26:28.939Z,101994.06
2023-05-25T10:28:37.721Z,101995.81
2023-05-25T10:30:42.986Z,102008.16
2023-05-25T10:32:48.610Z,101998.50
2023-05-25T10:34:53.848Z,101988.22
2023-05-25T10:36:58.318Z,101994.53
2023-05-25T10:39:03.480Z,101993.84
2023-05-25T10:41:07.380Z,101993.13
2023-05-25T10:43:11.369Z,101993.97
2023-05-25T10:45:16.736Z,101993.22
2023-05-25T10:47:21.633Z,102003.53
2023-05-25T10:49:33.745Z,102001.91
2023-05-25T10:51:40.902Z,102003.19
2023-05-25T10:53:48.383Z,101996.19
2023-05-25T10:56:03.393Z,102003.53
2023-05-25T10:58:10.716Z,101997.25
2023-05-25T11:00:19.406Z,101997.97
2023-05-25T11:02:24.400Z,102004.00
2023-05-25T11:04:28.991Z,101997.00
2023-05-25T11:07:08.563Z,102004.91
2023-05-25T11:09:25.496Z,101998.41
2023-05-25T11:12:03.601Z,102007.28
2023-05-25T11:14:21.362Z,101998.84
2023-05-25T11:16:36.291Z,101997.41
2023-05-25T11:18:43.504Z,102006.00
2023-05-25T11:20:48.336Z,102006.03
2023-05-25T11:22:52.965Z,102015.63
2023-05-25T11:24:59.341Z,102012.41
2023-05-25T11:27:05.974Z,102003.22
2023-05-25T11:29:14.444Z,101995.41
2023-05-25T11:31:20.236Z,101993.13
2023-05-25T11:33:25.060Z,102011.84
2023-05-25T11:35:29.169Z,102005.66
2023-05-25T11:37:33.627Z,101999.81
2023-05-25T11:39:37.087Z,101984.91
2023-05-25T11:41:42.157Z,102002.63
2023-05-25T11:43:47.324Z,102003.41
2023-05-25T11:45:57.451Z,101997.22
2023-05-25T11:48:01.482Z,102010.47
2023-05-25T11:50:07.592Z,102019.16
2023-05-25T11:52:11.361Z,102004.59
2023-05-25T11:54:22.939Z,102014.38
2023-05-25T11:56:35.183Z,102010.91
2023-05-25T11:58:39.481Z,101993.88
2023-05-25T12:00:43.116Z,101999.97
2023-05-25T12:02:46.812Z,102016.16
2023-05-25T12:04:57.278Z,102022.63
2023-05-25T12:07:06.377Z,102031.66
2023-05-25T12:09:13.228Z,102030.00
2023-05-25T12:11:16.778Z,102023.03
2023-05-25T12:13:21.615Z,102023.88
2023-05-25T12:15:26.367Z,101971.78
2023-05-25T12:17:30.227Z,102002.56
2023-05-25T12:19:33.712Z,102014.38
2023-05-25T12:21:39.165Z,102014.38
2023-05-25T12:23:44.181Z,102018.00
2023-05-25T12:25:50.922Z,102018.69
2023-05-25T12:28:13.070Z,102010.53
2023-05-25T12:30:16.677Z,102019.59
2023-05-25T12:32:20.403Z,102006.47
2023-05-25T12:34:28.540Z,102014.59
2023-05-25T12:36:52.655Z,102022.59
2023-05-25T12:39:03.446Z,102013.69
2023-05-25T12:41:07.698Z,102014.59
2023-05-25T12:43:12.280Z,101999.59
2023-05-25T12:45:15.779Z,102010.22
2023-05-25T12:47:22.418Z,101968.47
2023-05-25T12:49:28.126Z,102004.97
2023-05-25T12:51:39.287Z,102004.22
2023-05-25T12:53:50.927Z,102006.88
2023-05-25T12:56:03.610Z,102011.47
2023-05-25T12:58:08.098Z,102007.94
2023-05-25T13:00:12.893Z,102002.66
2023-05-25T13:02:16.393Z,102005.28
2023-05-25T13:04:19.884Z,102000.69
2023-05-25T13:06:23.216Z,101992.75
2023-05-25T13:08:26.579Z,101996.41
2023-05-25T13:10:30.950Z,101997.38
2023-05-25T13:12:36.098Z,101997.38
2023-05-25T13:14:39.428Z,101993.91
2023-05-25T13:16:43.099Z,101997.44
2023-05-25T13:18:46.494Z,101988.53
2023-05-25T13:20:51.729Z,101991.97
2023-05-25T13:22:56.922Z,101990.94
2023-05-25T13:25:00.282Z,101979.38
2023-05-25T13:27:03.893Z,101989.28
2023-05-25T13:29:08.617Z,101999.13
2023-05-25T13:31:12.030Z,101989.44
2023-05-25T13:33:15.490Z,101990.41
2023-05-25T13:35:23.968Z,101987.75
2023-05-25T13:37:27.818Z,101982.53
2023-05-25T13:39:31.195Z,101986.13
2023-05-25T13:41:34.544Z,101994.13
2023-05-25T13:43:38.544Z,101984.38
2023-05-25T13:45:43.709Z,101982.63
2023-05-25T13:47:47.539Z,101954.25
2023-05-25T13:49:51.242Z,101987.03
2023-05-25T13:51:54.578Z,101974.63
2023-05-25T13:53:58.067Z,101978.19
2023-05-25T13:56:01.589Z,101967.53
2023-05-25T13:58:04.963Z,101976.41
2023-05-25T14:00:09.485Z,101976.41
2023-05-25T14:02:14.512Z,101971.06
2023-05-25T14:04:18.269Z,101911.63
2023-05-25T14:06:21.726Z,101931.19
2023-05-25T14:08:25.087Z,101966.66
2023-05-25T14:10:28.428Z,101969.34
2023-05-25T14:12:31.883Z,101962.19
2023-05-25T14:14:35.278Z,101945.34
2023-05-25T14:16:38.964Z,101962.22
2023-05-25T14:18:43.768Z,101964.91
2023-05-25T14:20:47.430Z,101969.31
2023-05-25T14:22:50.829Z,101946.28
2023-05-25T14:24:54.157Z,101964.00
2023-05-25T14:26:57.531Z,101964.91
2023-05-25T14:29:00.869Z,101869.22
2023-05-25T14:31:04.447Z,101961.34
2023-05-25T14:33:08.415Z,101961.34
2023-05-25T14:35:13.216Z,101964.88
2023-05-25T14:37:16.584Z,101952.44
2023-05-25T14:39:19.930Z,101957.75
2023-05-25T14:41:23.592Z,101960.34
2023-05-25T14:43:26.987Z,101958.50
2023-05-25T14:45:30.423Z,101965.63
2023-05-25T14:47:33.938Z,101954.81
2023-05-25T14:49:37.294Z,101953.84
2023-05-25T14:51:42.009Z,101960.88
2023-05-25T14:53:45.939Z,101855.72
2023-05-25T14:55:49.319Z,101959.41
2023-05-25T14:57:52.787Z,101951.50
2023-05-25T14:59:56.466Z,101958.53
2023-05-25T15:01:59.928Z,101970.13
2023-05-25T15:04:03.458Z,101964.00
2023-05-25T15:06:07.829Z,101962.22
2023-05-25T15:08:12.850Z,101963.03
2023-05-25T15:10:16.325Z,101957.78
2023-05-25T15:12:19.769Z,101964.00
2023-05-25T15:14:23.084Z,101964.00
2023-05-25T15:16:26.724Z,101960.47
2023-05-25T15:18:30.222Z,101959.56
2023-05-25T15:20:33.646Z,101963.06
2023-05-25T15:22:37.026Z,101958.59
2023-05-25T15:24:41.699Z,101947.88
2023-05-25T15:26:45.103Z,101937.22
2023-05-25T15:28:48.532Z,101955.78
2023-05-25T15:30:51.908Z,101952.19
2023-05-25T15:32:55.375Z,101954.75
2023-05-25T15:34:58.851Z,101948.59
2023-05-25T15:37:02.323Z,101952.22
2023-05-25T15:39:08.766Z,101941.72
2023-05-25T15:41:16.033Z,101952.34
2023-05-25T15:43:19.437Z,101930.19
2023-05-25T15:45:22.864Z,101924.00
2023-05-25T15:47:26.601Z,101915.09
2023-05-25T15:49:30.255Z,101944.31
2023-05-25T15:51:33.687Z,101940.84
2023-05-25T15:53:37.019Z,101935.59
2023-05-25T15:55:40.507Z,101942.66
2023-05-25T15:57:45.234Z,101941.66
2023-05-25T15:59:48.958Z,101946.94
2023-05-25T16:01:52.427Z,101946.97
2023-05-25T16:03:55.965Z,101938.03
2023-05-25T16:05:59.452Z,101952.22
2023-05-25T16:08:02.847Z,101947.78
2023-05-25T16:10:07.253Z,101949.59
2023-05-25T16:12:10.687Z,101939.84
2023-05-25T16:14:15.438Z,101951.25
2023-05-25T16:16:19.884Z,101953.88
2023-05-25T16:18:23.210Z,101941.34
2023-05-25T16:20:26.604Z,101945.81
2023-05-25T16:22:30.025Z,101943.19
2023-05-25T16:24:33.517Z,101924.72
2023-05-25T16:26:36.902Z,101945.19
2023-05-25T16:28:40.525Z,101938.06
2023-05-25T16:30:45.309Z,101930.94
2023-05-25T16:32:48.710Z,101936.25
2023-05-25T16:34:52.153Z,101933.59
2023-05-25T16:36:55.535Z,101891.94
2023-05-25T16:38:58.919Z,101912.38
2023-05-25T16:41:02.265Z,101940.59
2023-05-25T16:43:05.646Z,101940.53
2023-05-25T16:45:10.033Z,101941.34
2023-05-25T16:47:15.016Z,101936.84
2023-05-25T16:49:18.609Z,101932.44
2023-05-25T16:51:21.917Z,101927.16
2023-05-25T16:53:25.421Z,101912.19
2023-05-25T16:55:29.735Z,101893.56
2023-05-25T16:57:33.080Z,101930.63
2023-05-25T16:59:36.414Z,101931.72
2023-05-25T17:01:39.959Z,101936.22
2023-05-25T17:03:44.831Z,101928.31
2023-05-25T17:05:48.229Z,101925.66
2023-05-25T17:07:51.714Z,101929.19
2023-05-25T17:09:55.109Z,101879.53
2023-05-25T17:12:01.158Z,101920.16
2023-05-25T17:14:04.636Z,101931.72
2023-05-25T17:16:08.189Z,101926.47
2023-05-25T17:18:11.679Z,101933.53
2023-05-25T17:20:17.048Z,101929.06
2023-05-25T17:22:21.558Z,101926.31
2023-05-25T17:24:24.921Z,101924.50
2023-05-25T17:26:28.398Z,101916.44
2023-05-25T17:28:32.933Z,101923.53
2023-05-25T17:30:36.390Z,101921.72
2023-05-25T17:32:40.997Z,101922.69
2023-05-25T17:34:44.385Z,101927.13
2023-05-25T17:36:49.089Z,101922.75
2023-05-25T17:38:52.460Z,101931.72
2023-05-25T17:40:55.817Z,101923.69
2023-05-25T17:42:59.165Z,101922.81
2023-05-25T17:45:02.564Z,101921.03
2023-05-25T17:47:09.182Z,101908.81
2023-05-25T17:49:14.434Z,101921.41
2023-05-25T17:51:18.420Z,101921.38
2023-05-25T17:53:23.199Z,101831.06
2023-05-25T17:55:26.998Z,101929.31
2023-05-25T17:57:30.593Z,101931.09
2023-05-25T17:59:33.951Z,101925.75
2023-05-25T18:01:38.318Z,101927.50
2023-05-25T18:03:42.212Z,101931.97
2023-05-25T18:05:45.867Z,101926.66
2023-05-25T18:07:49.424Z,101929.31
2023-05-25T18:09:54.220Z,101931.09
2023-05-25T18:11:59.568Z,101913.44
2023-05-25T18:14:03.022Z,101879.78
2023-05-25T18:16:07.487Z,101930.28
2023-05-25T18:18:10.904Z,101934.75
2023-05-25T18:20:14.334Z,101923.19
2023-05-25T18:22:17.806Z,101927.66
2023-05-25T18:24:21.223Z,101928.56
2023-05-25T18:26:26.785Z,101932.09
2023-05-25T18:28:31.300Z,101925.03
2023-05-25T18:30:35.127Z,101934.75
2023-05-25T18:32:38.497Z,101928.56
2023-05-25T18:34:42.276Z,101930.31
2023-05-25T18:36:45.666Z,101931.19
2023-05-25T18:38:48.984Z,101933.00
2023-05-25T18:40:52.407Z,101932.97
2023-05-25T18:42:57.187Z,101940.06
2023-05-25T18:45:00.703Z,101932.09
2023-05-25T18:47:04.481Z,101933.88
2023-05-25T18:49:08.147Z,101940.00
2023-05-25T18:51:11.691Z,101937.34
2023-05-25T18:53:15.150Z,101940.00
2023-05-25T18:55:18.931Z,101934.66
2023-05-25T18:57:22.356Z,101947.94
2023-05-25T18:59:27.249Z,101950.56
2023-05-25T19:01:30.854Z,101939.84
2023-05-25T19:03:34.481Z,101935.34
2023-05-25T19:05:37.928Z,101938.88
2023-05-25T19:07:54.853Z,101937.13
2023-05-25T19:10:01.427Z,101939.78
2023-05-25T19:12:07.032Z,101938.03
2023-05-25T19:14:10.572Z,101900.75
2023-05-25T19:16:15.438Z,101934.50
2023-05-25T19:18:19.622Z,101947.75
2023-05-25T19:20:23.177Z,101944.16
2023-05-25T19:22:26.582Z,101944.06
2023-05-25T19:24:30.091Z,101938.75
2023-05-25T19:26:34.157Z,101940.44
2023-05-25T19:28:37.499Z,101948.38
2023-05-25T19:30:40.875Z,101946.69
2023-05-25T19:32:45.722Z,101946.75
2023-05-25T19:34:49.216Z,101957.38
2023-05-25T19:37:03.764Z,101961.78
2023-05-25T19:39:14.220Z,101842.97
2023-05-25T19:41:17.597Z,101959.13
2023-05-25T19:43:21.239Z,101958.19
2023-05-25T19:45:24.635Z,101955.50
2023-05-25T19:47:28.224Z,101947.53
2023-05-25T19:49:33.281Z,101955.50
2023-05-25T19:51:37.322Z,101957.25
2023-05-25T19:53:40.735Z,101962.56
2023-05-25T19:55:44.255Z,101956.34
2023-05-25T19:57:47.724Z,101965.22
2023-05-25T19:59:51.140Z,101968.75
2023-05-25T20:01:54.556Z,101959.88
2023-05-25T20:03:58.393Z,101964.25
2023-05-25T20:06:03.228Z,101965.97
2023-05-25T20:08:06.643Z,101965.09
2023-05-25T20:10:10.535Z,101962.41
2023-05-25T20:12:14.878Z,101968.47
2023-05-25T20:14:20.096Z,101966.47
2023-05-25T20:16:25.845Z,101968.94
2023-05-25T20:18:29.411Z,101974.13
2023-05-25T20:20:32.874Z,101971.44
2023-05-25T20:22:37.665Z,101967.72
2023-05-25T20:24:41.147Z,101973.78
2023-05-25T20:26:44.764Z,101977.06
2023-05-25T20:28:48.208Z,101971.75
2023-05-25T20:30:51.613Z,101972.69
2023-05-25T20:32:55.013Z,101973.41
2023-05-25T20:34:58.488Z,101972.53
2023-05-25T20:37:01.969Z,101975.38
2023-05-25T20:39:06.696Z,101974.63
2023-05-25T20:41:10.377Z,101967.59
2023-05-25T20:43:13.770Z,101976.47
2023-05-25T20:45:17.154Z,101976.41
2023-05-25T20:47:20.699Z,101975.53
2023-05-25T20:49:25.978Z,101974.69
2023-05-25T20:51:29.559Z,101982.78
2023-05-25T20:53:33.008Z,101977.47
2023-05-25T20:55:37.826Z,101982.69
2023-05-25T20:57:41.220Z,101975.56
2023-05-25T20:59:44.533Z,101993.28
2023-05-25T21:01:47.918Z,101993.31
2023-05-25T21:03:51.535Z,101988.00
2023-05-25T21:05:55.216Z,101992.38
2023-05-25T21:07:58.624Z,101990.53
2023-05-25T21:10:02.841Z,101989.47
2023-05-25T21:12:07.656Z,101983.25
2023-05-25T21:14:10.966Z,101982.41
2023-05-25T21:16:14.443Z,101983.25
2023-05-25T21:18:17.870Z,101982.38
2023-05-25T21:20:21.508Z,101986.81
2023-05-25T21:22:24.956Z,101985.88
2023-05-25T21:24:28.405Z,101985.81
2023-05-25T21:26:32.203Z,101988.50
2023-05-25T21:28:36.935Z,101993.84
2023-05-25T21:30:40.353Z,101984.13
2023-05-25T21:32:43.724Z,101992.91
2023-05-25T21:34:47.159Z,101991.16
2023-05-25T21:36:50.571Z,101993.44
2023-05-25T21:38:53.990Z,102002.81
2023-05-25T21:40:58.467Z,102001.75
2023-05-25T21:43:02.114Z,102002.41
2023-05-25T21:45:07.992Z,102005.75
2023-05-25T21:47:13.443Z,102003.88
2023-05-25T21:49:17.220Z,101995.56
2023-05-25T21:51:20.595Z,102009.66
2023-05-25T21:53:24.001Z,101989.97
2023-05-25T21:55:27.383Z,101995.25
2023-05-25T21:57:30.765Z,102004.75
2023-05-25T21:59:34.104Z,102001.06
2023-05-25T22:02:00.168Z,101976.13
2023-05-25T22:04:03.617Z,102002.34
2023-05-25T22:06:07.318Z,102004.94
2023-05-25T22:08:10.816Z,101996.13
2023-05-25T22:10:14.252Z,101997.00
2023-05-25T22:12:17.746Z,101992.50
2023-05-25T22:14:21.121Z,102003.00
2023-05-25T22:16:24.611Z,101998.50
2023-05-25T22:18:29.347Z,102008.06
2023-05-25T22:20:33.041Z,102004.41
2023-05-25T22:22:37.326Z,101996.22
2023-05-25T22:24:40.744Z,102017.34
2023-05-25T22:26:44.375Z,102011.88
2023-05-25T22:28:47.763Z,102015.28
2023-05-25T22:30:57.201Z,102007.50
2023-05-25T22:33:00.725Z,102012.56
2023-05-25T22:35:06.189Z,102024.19
2023-05-25T22:37:10.950Z,102020.66
2023-05-25T22:39:14.363Z,102020.78
2023-05-25T22:41:17.805Z,102026.88
2023-05-25T22:43:21.341Z,102023.06
2023-05-25T22:45:24.838Z,102025.56
2023-05-25T22:47:31.299Z,102034.44
2023-05-25T22:49:41.272Z,102030.84
2023-05-25T22:51:48.926Z,102031.75
2023-05-25T22:53:52.417Z,102047.53
2023-05-25T22:55:55.853Z,102040.41
2023-05-25T22:57:59.197Z,102039.50
2023-05-25T23:00:02.587Z,102038.59
2023-05-25T23:02:06.397Z,102036.72
2023-05-25T23:04:10.091Z,102012.88
2023-05-25T23:06:13.593Z,102048.47
2023-05-25T23:08:18.538Z,102034.91
2023-05-25T23:10:21.930Z,102041.72
2023-05-25T23:12:25.239Z,102038.13
2023-05-25T23:14:30.263Z,102038.06
2023-05-25T23:16:34.055Z,102037.13
2023-05-25T23:18:37.514Z,101915.19
2023-05-25T23:20:41.021Z,102043.31
2023-05-25T23:22:44.462Z,102031.03
2023-05-25T23:24:49.185Z,102034.50
2023-05-25T23:26:52.951Z,102033.59
2023-05-25T23:28:56.380Z,102037.09
2023-05-25T23:30:59.720Z,102040.66
2023-05-25T23:33:03.100Z,102033.69
2023-05-25T23:35:07.579Z,102045.84
2023-05-25T23:37:11.237Z,102041.44
2023-05-25T23:39:15.263Z,102045.03
2023-05-25T23:41:20.011Z,102017.75
2023-05-25T23:43:23.272Z,102036.50
2023-05-25T23:45:27.195Z,102035.06
2023-05-25T23:47:30.690Z,102027.19